ADDS METAR Data INFO
IDs: Format: Raw Decoded Include TAF

Data at: 0055 UTC 22 Oct 2017

PACV 220053Z 29004KT 10SM SCT049 SCT060 BKN120 04/M02 A2914 RMK AO2 SLP867 T00441017
PACV 212353Z 00000KT 10SM FEW049 BKN120 05/M02 A2915 RMK AO2 SLP871 T00501022 10078 20022 56012
PACV 212253Z 16004KT 10SM SCT045 BKN120 07/M02 A2916 RMK AO2 SLP874 T00671022
PACV 212153Z 00000KT 10SM SCT042 SCT050 BKN120 07/M02 A2917 RMK AO2 SLP879 T00671022
PACV 212053Z VRB04KT 10SM FEW041 SCT050 BKN120 07/M02 A2919 RMK AO2 SLP883 T00671022 58013
PACV 211953Z 00000KT 10SM FEW036 BKN095 BKN120 04/M02 A2921 RMK AO2 SLP890 T00441022
PACV 211853Z 00000KT 10SM FEW036 BKN090 BKN120 02/M03 A2921 RMK AO2 SLP892 T00221028
PACV 211753Z 06005KT 10SM FEW036 BKN070 BKN120 02/M03 A2922 RMK AO2 SLP896 T00221028 10028 20017 58002
PACV 211653Z 07008KT 10SM SCT036 BKN070 03/M03 A2923 RMK AO2 SLP898 T00281028
PACV 211553Z 08005KT 10SM BKN036 OVC047 03/M03 A2923 RMK AO2 SLP899 T00281028
PACV 211453Z 08005KT 10SM SCT038 BKN050 OVC100 02/M02 A2923 RMK AO2 SLP899 T00221017 56012
PACV 211353Z 07010G15KT 10SM FEW038 BKN050 OVC060 03/M02 A2923 RMK AO2 SLP899 T00281022
PACV 211253Z 08006KT 10SM FEW038 OVC050 03/M02 A2924 RMK AO2 SLP903 T00281022
PACV 211153Z 11005KT 10SM OVC042 03/M03 A2927 RMK AO2 SLP911 60000 T00281028 10028 21006 58011
PACV 211053Z 11003KT 10SM BKN049 OVC060 02/M03 A2928 RMK AO2 SLP916 T00221028
PACV 210953Z 07006KT 10SM FEW060 BKN100 BKN120 02/M02 A2929 RMK AO2 SLP920 T00171022
PACV 210853Z 05005KT 10SM FEW060 OVC100 01/M02 A2930 RMK AO2 SLP922 60000 T00111022 400391072 51003
PACV 210753Z 08004KT 10SM OVC050 01/M02 A2930 RMK AO2 SNB0656E12 SLP922 P0000 T00111017
PACV 210653Z 00000KT 10SM SCT033 OVC044 00/M01 A2930 RMK AO2 SLP923 T00001006
PACV 210553Z 33005KT 10SM BKN043 OVC055 00/M01 A2929 RMK AO2 SNE14 SLP919 P0000 60000 T00001011 10033 20000 50008
PACV 210514Z 02004KT 9SM SCT015 OVC043 00/M01 A2929 RMK AO2 SNE14 P0000 T00001006
PACV 210506Z 02006KT 3SM -SN BR BKN015 OVC043 00/M01 A2929 RMK AO2 P0000 T00001011
PACV 210500Z 00000KT 1SM R27/4500VP6000FT -SN BR BKN015 OVC043 01/M01 A2929 RMK AO2 P0000 T00061011
PACV 210455Z 26004KT 3/4SM R27/4500VP6000FT -SN BR FEW010 OVC014 01/M01 A2929 RMK AO2 P0000 T00061006
PACV 210453Z 21005KT 1SM R27/5500VP6000FT -SN BR FEW010 OVC016 01/00 A2929 RMK AO2 SLP920 P0000 T00060000
PACV 210438Z 02003KT 2 1/2SM -SN BR FEW014 OVC023 00/M01 A2929 RMK AO2 P0000 T00001006
PACV 210420Z 00000KT 3SM R27/5500VP6000FT -SN BR BKN023 BKN037 OVC049 00/00 A2929 RMK AO2 P0000 T00000000
PACV 210415Z 23004KT 1 1/2SM R27/5500VP6000FT -SN BR BKN018 OVC037 00/M01 A2929 RMK AO2 P0000 T00001006
PACV 210407Z 20006KT 2 1/2SM -SN BR BKN022 OVC035 01/M01 A2929 RMK AO2 P0000 T00061011
PACV 210353Z 21004KT 4SM -SN BR SCT036 BKN050 00/M01 A2929 RMK AO2 SNB08E25B47 SLP917 P0000 T00001006
PACV 210253Z 00000KT 10SM BKN036 BKN045 01/M03 A2927 RMK AO2 SLP911 T00111033 51014
PACV 210153Z VRB04KT 10SM BKN035 OVC045 02/M03 A2926 RMK AO2 SLP908 T00171033
PACV 210053Z 11006KT 10SM SCT047 OVC060 03/M05 A2924 RMK AO2 SLP901 BLDU BINOVC S T00281050
PACV 202353Z 18004KT 10SM BKN065 OVC075 03/M06 A2923 RMK AO2 SLP898 T00331061 10039 21039 53001
PACV 202253Z 18005KT 10SM BKN075 03/M04 A2923 RMK AO2 SLP897 T00281039
PACV 202153Z 00000KT 10SM OVC065 03/M07 A2922 RMK AO2 SLP895 T00331067 $
PACV 202053Z 00000KT 10SM OVC070 02/M04 A2923 RMK AO2 SLP897 T00221044 52005 $
PACV 201953Z 00000KT 10SM FEW070 OVC080 01/M03 A2922 RMK AO2 SLP896 T00111033 $
PACV 201853Z 00000KT 10SM SCT065 OVC085 M01/M03 A2921 RMK AO2 SLP893 T10061028 $
PACV 201753Z 00000KT 10SM OVC085 M04/M05 A2921 RMK AO2 SLP892 I6000 T10391050 11028 21072 51012
PACV 201653Z 00000KT 8SM BKN080 M07/M07 A2920 RMK AO2 SLP888 I1000 T10671067
PACV 201553Z 00000KT 10SM FEW060 M07/M08 A2919 RMK AO2 SLP885 I1000 T10721078
PACV 201453Z 00000KT 10SM CLR M06/M07 A2918 RMK AO2 SLP880 I1000 I3000 T10611072 53011
PACV 201353Z 00000KT 10SM CLR M07/M08 A2916 RMK AO2 SLP876 I1000 T10671078